sensor_id;sensor_type;location;lat;lon;timestamp;P1;durP1;ratioP1;P2;durP2;ratioP2
13487;SDS011;6816;48.506;9.050;2023-07-29T00:00:15;2.35;;;1.92;;
13487;SDS011;6816;48.506;9.050;2023-07-29T00:03:16;1.55;;;1.45;;
13487;SDS011;6816;48.506;9.050;2023-07-29T00:06:16;2.55;;;1.52;;
13487;SDS011;6816;48.506;9.050;2023-07-29T00:09:17;2.28;;;1.60;;
13487;SDS011;6816;48.506;9.050;2023-07-29T00:12:17;1.65;;;1.45;;
13487;SDS011;6816;48.506;9.050;2023-07-29T00:15:18;1.70;;;1.52;;
13487;SDS011;6816;48.506;9.050;2023-07-29T00:18:19;1.83;;;1.63;;
13487;SDS011;6816;48.506;9.050;2023-07-29T00:21:19;2.97;;;1.40;;
13487;SDS011;6816;48.506;9.050;2023-07-29T00:24:20;2.35;;;1.40;;
13487;SDS011;6816;48.506;9.050;2023-07-29T00:27:21;3.55;;;1.50;;
13487;SDS011;6816;48.506;9.050;2023-07-29T00:30:21;1.80;;;1.42;;
13487;SDS011;6816;48.506;9.050;2023-07-29T00:33:22;3.40;;;1.20;;
13487;SDS011;6816;48.506;9.050;2023-07-29T00:36:22;1.30;;;1.20;;
13487;SDS011;6816;48.506;9.050;2023-07-29T00:39:23;1.77;;;1.55;;
13487;SDS011;6816;48.506;9.050;2023-07-29T00:42:24;1.67;;;1.50;;
13487;SDS011;6816;48.506;9.050;2023-07-29T00:45:25;2.60;;;1.70;;
13487;SDS011;6816;48.506;9.050;2023-07-29T00:48:27;4.65;;;1.67;;
13487;SDS011;6816;48.506;9.050;2023-07-29T00:51:27;3.15;;;1.70;;
13487;SDS011;6816;48.506;9.050;2023-07-29T00:54:28;3.63;;;2.38;;
13487;SDS011;6816;48.506;9.050;2023-07-29T00:57:29;3.33;;;2.05;;
13487;SDS011;6816;48.506;9.050;2023-07-29T01:00:30;2.03;;;1.58;;
13487;SDS011;6816;48.506;9.050;2023-07-29T01:03:30;1.90;;;1.80;;
13487;SDS011;6816;48.506;9.050;2023-07-29T01:06:50;2.05;;;1.80;;
13487;SDS011;6816;48.506;9.050;2023-07-29T01:13:48;3.08;;;2.10;;
13487;SDS011;6816;48.506;9.050;2023-07-29T01:16:55;2.50;;;1.83;;
13487;SDS011;6816;48.506;9.050;2023-07-29T01:20:08;2.42;;;1.60;;
13487;SDS011;6816;48.506;9.050;2023-07-29T01:23:11;2.33;;;1.90;;
13487;SDS011;6816;48.506;9.050;2023-07-29T01:26:12;2.50;;;2.10;;
13487;SDS011;6816;48.506;9.050;2023-07-29T01:29:12;2.63;;;2.42;;
13487;SDS011;6816;48.506;9.050;2023-07-29T01:35:54;2.15;;;1.75;;
13487;SDS011;6816;48.506;9.050;2023-07-29T01:38:58;3.72;;;2.10;;
13487;SDS011;6816;48.506;9.050;2023-07-29T01:42:00;3.00;;;1.92;;
13487;SDS011;6816;48.506;9.050;2023-07-29T01:45:02;3.17;;;2.08;;
13487;SDS011;6816;48.506;9.050;2023-07-29T01:48:02;8.20;;;2.17;;
13487;SDS011;6816;48.506;9.050;2023-07-29T01:51:06;3.35;;;2.00;;
13487;SDS011;6816;48.506;9.050;2023-07-29T01:54:07;2.95;;;2.13;;
13487;SDS011;6816;48.506;9.050;2023-07-29T01:57:08;2.20;;;2.00;;
13487;SDS011;6816;48.506;9.050;2023-07-29T02:00:09;2.47;;;2.28;;
13487;SDS011;6816;48.506;9.050;2023-07-29T02:03:10;5.45;;;2.13;;
13487;SDS011;6816;48.506;9.050;2023-07-29T02:06:10;2.67;;;2.38;;
13487;SDS011;6816;48.506;9.050;2023-07-29T02:09:11;2.53;;;2.00;;
13487;SDS011;6816;48.506;9.050;2023-07-29T02:12:11;2.05;;;1.88;;
13487;SDS011;6816;48.506;9.050;2023-07-29T02:15:12;2.22;;;2.03;;
13487;SDS011;6816;48.506;9.050;2023-07-29T02:18:13;2.92;;;2.25;;
13487;SDS011;6816;48.506;9.050;2023-07-29T02:21:14;3.38;;;2.35;;
13487;SDS011;6816;48.506;9.050;2023-07-29T02:24:14;5.47;;;2.22;;
13487;SDS011;6816;48.506;9.050;2023-07-29T02:27:15;2.42;;;2.22;;
13487;SDS011;6816;48.506;9.050;2023-07-29T02:30:15;3.28;;;2.17;;
13487;SDS011;6816;48.506;9.050;2023-07-29T02:33:16;3.97;;;2.03;;
13487;SDS011;6816;48.506;9.050;2023-07-29T02:36:17;3.20;;;1.80;;
13487;SDS011;6816;48.506;9.050;2023-07-29T02:39:18;3.38;;;1.70;;
13487;SDS011;6816;48.506;9.050;2023-07-29T02:42:18;3.85;;;1.50;;
13487;SDS011;6816;48.506;9.050;2023-07-29T02:45:19;4.53;;;1.73;;
13487;SDS011;6816;48.506;9.050;2023-07-29T02:48:19;7.35;;;1.83;;
13487;SDS011;6816;48.506;9.050;2023-07-29T02:51:20;1.40;;;1.30;;
13487;SDS011;6816;48.506;9.050;2023-07-29T02:54:20;1.50;;;1.40;;
13487;SDS011;6816;48.506;9.050;2023-07-29T02:57:21;1.92;;;1.70;;
13487;SDS011;6816;48.506;9.050;2023-07-29T03:00:22;2.08;;;1.90;;
13487;SDS011;6816;48.506;9.050;2023-07-29T03:03:22;2.25;;;1.50;;
13487;SDS011;6816;48.506;9.050;2023-07-29T03:06:23;2.53;;;1.90;;
13487;SDS011;6816;48.506;9.050;2023-07-29T03:09:24;1.70;;;1.60;;
13487;SDS011;6816;48.506;9.050;2023-07-29T03:12:24;2.92;;;1.90;;
13487;SDS011;6816;48.506;9.050;2023-07-29T03:15:25;2.60;;;1.85;;
13487;SDS011;6816;48.506;9.050;2023-07-29T03:18:26;3.00;;;1.70;;
13487;SDS011;6816;48.506;9.050;2023-07-29T03:21:26;2.00;;;1.60;;
13487;SDS011;6816;48.506;9.050;2023-07-29T03:24:27;1.60;;;1.50;;
13487;SDS011;6816;48.506;9.050;2023-07-29T03:27:28;2.10;;;1.43;;
13487;SDS011;6816;48.506;9.050;2023-07-29T03:30:29;3.53;;;1.40;;
13487;SDS011;6816;48.506;9.050;2023-07-29T03:33:29;3.72;;;1.70;;
13487;SDS011;6816;48.506;9.050;2023-07-29T03:36:30;1.90;;;1.70;;
13487;SDS011;6816;48.506;9.050;2023-07-29T03:39:31;3.72;;;2.40;;
13487;SDS011;6816;48.506;9.050;2023-07-29T03:42:32;3.95;;;3.45;;
13487;SDS011;6816;48.506;9.050;2023-07-29T03:45:33;3.08;;;2.38;;
13487;SDS011;6816;48.506;9.050;2023-07-29T03:48:34;4.10;;;2.08;;
13487;SDS011;6816;48.506;9.050;2023-07-29T03:51:35;3.50;;;2.08;;
13487;SDS011;6816;48.506;9.050;2023-07-29T03:54:35;2.00;;;1.63;;
13487;SDS011;6816;48.506;9.050;2023-07-29T03:57:37;2.03;;;1.92;;
13487;SDS011;6816;48.506;9.050;2023-07-29T04:00:38;2.47;;;2.03;;
13487;SDS011;6816;48.506;9.050;2023-07-29T04:03:39;1.80;;;1.70;;
13487;SDS011;6816;48.506;9.050;2023-07-29T04:06:39;3.05;;;2.00;;
13487;SDS011;6816;48.506;9.050;2023-07-29T04:09:40;2.22;;;1.95;;
13487;SDS011;6816;48.506;9.050;2023-07-29T04:12:40;3.17;;;2.15;;
13487;SDS011;6816;48.506;9.050;2023-07-29T04:15:41;2.33;;;2.13;;
13487;SDS011;6816;48.506;9.050;2023-07-29T04:18:42;2.42;;;2.15;;
13487;SDS011;6816;48.506;9.050;2023-07-29T04:21:42;3.47;;;1.98;;
13487;SDS011;6816;48.506;9.050;2023-07-29T04:24:43;2.20;;;2.00;;
13487;SDS011;6816;48.506;9.050;2023-07-29T04:27:43;2.95;;;2.20;;
13487;SDS011;6816;48.506;9.050;2023-07-29T04:30:44;2.25;;;2.15;;
13487;SDS011;6816;48.506;9.050;2023-07-29T04:33:45;2.40;;;2.20;;
13487;SDS011;6816;48.506;9.050;2023-07-29T04:36:46;3.08;;;2.10;;
13487;SDS011;6816;48.506;9.050;2023-07-29T04:39:47;2.25;;;2.13;;
13487;SDS011;6816;48.506;9.050;2023-07-29T04:42:47;5.80;;;2.38;;
13487;SDS011;6816;48.506;9.050;2023-07-29T04:45:48;2.78;;;2.15;;
13487;SDS011;6816;48.506;9.050;2023-07-29T04:48:49;2.60;;;2.40;;
13487;SDS011;6816;48.506;9.050;2023-07-29T04:51:49;2.53;;;2.33;;
13487;SDS011;6816;48.506;9.050;2023-07-29T04:54:50;2.92;;;2.72;;
13487;SDS011;6816;48.506;9.050;2023-07-29T04:57:51;2.75;;;2.55;;
13487;SDS011;6816;48.506;9.050;2023-07-29T05:00:51;2.40;;;2.30;;
13487;SDS011;6816;48.506;9.050;2023-07-29T05:03:53;4.20;;;1.95;;
13487;SDS011;6816;48.506;9.050;2023-07-29T05:06:54;3.42;;;2.10;;
13487;SDS011;6816;48.506;9.050;2023-07-29T05:09:54;2.35;;;1.98;;
13487;SDS011;6816;48.506;9.050;2023-07-29T05:12:55;2.40;;;2.17;;
13487;SDS011;6816;48.506;9.050;2023-07-29T05:15:55;2.30;;;2.10;;
13487;SDS011;6816;48.506;9.050;2023-07-29T05:18:56;2.60;;;2.40;;
13487;SDS011;6816;48.506;9.050;2023-07-29T05:21:57;2.78;;;2.10;;
13487;SDS011;6816;48.506;9.050;2023-07-29T05:24:57;4.90;;;2.28;;
13487;SDS011;6816;48.506;9.050;2023-07-29T05:27:58;2.55;;;2.35;;
13487;SDS011;6816;48.506;9.050;2023-07-29T05:31:00;2.50;;;2.30;;
13487;SDS011;6816;48.506;9.050;2023-07-29T05:34:01;2.15;;;1.92;;
13487;SDS011;6816;48.506;9.050;2023-07-29T05:37:02;3.25;;;2.20;;
13487;SDS011;6816;48.506;9.050;2023-07-29T05:40:03;2.22;;;2.10;;
13487;SDS011;6816;48.506;9.050;2023-07-29T05:43:04;2.70;;;2.47;;
13487;SDS011;6816;48.506;9.050;2023-07-29T05:46:04;2.47;;;2.28;;
13487;SDS011;6816;48.506;9.050;2023-07-29T05:49:05;2.15;;;1.95;;
13487;SDS011;6816;48.506;9.050;2023-07-29T05:52:06;2.30;;;2.10;;
13487;SDS011;6816;48.506;9.050;2023-07-29T05:55:07;2.58;;;2.00;;
13487;SDS011;6816;48.506;9.050;2023-07-29T05:58:08;3.35;;;1.85;;
13487;SDS011;6816;48.506;9.050;2023-07-29T06:01:09;2.30;;;2.10;;
13487;SDS011;6816;48.506;9.050;2023-07-29T06:04:10;1.60;;;1.50;;
13487;SDS011;6816;48.506;9.050;2023-07-29T06:07:10;2.40;;;1.42;;
13487;SDS011;6816;48.506;9.050;2023-07-29T06:10:14;3.67;;;1.77;;
13487;SDS011;6816;48.506;9.050;2023-07-29T06:13:18;1.50;;;1.40;;
13487;SDS011;6816;48.506;9.050;2023-07-29T06:16:19;1.88;;;1.75;;
13487;SDS011;6816;48.506;9.050;2023-07-29T06:19:20;3.97;;;1.63;;
13487;SDS011;6816;48.506;9.050;2023-07-29T06:22:20;1.83;;;1.60;;
13487;SDS011;6816;48.506;9.050;2023-07-29T06:25:21;2.63;;;1.60;;
13487;SDS011;6816;48.506;9.050;2023-07-29T06:28:22;1.52;;;1.42;;
13487;SDS011;6816;48.506;9.050;2023-07-29T06:31:23;3.08;;;1.50;;
13487;SDS011;6816;48.506;9.050;2023-07-29T06:34:23;1.85;;;1.70;;
13487;SDS011;6816;48.506;9.050;2023-07-29T06:37:24;1.77;;;1.63;;
13487;SDS011;6816;48.506;9.050;2023-07-29T06:40:25;2.13;;;1.77;;
13487;SDS011;6816;48.506;9.050;2023-07-29T06:43:25;1.95;;;1.75;;
13487;SDS011;6816;48.506;9.050;2023-07-29T06:46:26;1.75;;;1.58;;
13487;SDS011;6816;48.506;9.050;2023-07-29T06:49:27;2.17;;;1.60;;
13487;SDS011;6816;48.506;9.050;2023-07-29T06:52:27;3.63;;;1.85;;
13487;SDS011;6816;48.506;9.050;2023-07-29T06:55:28;4.72;;;2.35;;
13487;SDS011;6816;48.506;9.050;2023-07-29T06:58:28;3.90;;;2.08;;
13487;SDS011;6816;48.506;9.050;2023-07-29T07:01:29;2.88;;;2.05;;
13487;SDS011;6816;48.506;9.050;2023-07-29T07:04:29;2.90;;;2.20;;
13487;SDS011;6816;48.506;9.050;2023-07-29T07:07:30;2.65;;;1.95;;
13487;SDS011;6816;48.506;9.050;2023-07-29T07:10:31;2.55;;;2.35;;
13487;SDS011;6816;48.506;9.050;2023-07-29T07:13:33;2.33;;;2.13;;
13487;SDS011;6816;48.506;9.050;2023-07-29T07:16:34;2.38;;;1.80;;
13487;SDS011;6816;48.506;9.050;2023-07-29T07:19:36;2.47;;;1.85;;
13487;SDS011;6816;48.506;9.050;2023-07-29T07:22:37;3.17;;;2.00;;
13487;SDS011;6816;48.506;9.050;2023-07-29T07:25:38;2.80;;;2.28;;
13487;SDS011;6816;48.506;9.050;2023-07-29T07:28:38;3.55;;;2.42;;
13487;SDS011;6816;48.506;9.050;2023-07-29T07:31:39;2.70;;;2.50;;
13487;SDS011;6816;48.506;9.050;2023-07-29T07:34:39;2.67;;;2.47;;
13487;SDS011;6816;48.506;9.050;2023-07-29T07:37:40;3.00;;;2.15;;
13487;SDS011;6816;48.506;9.050;2023-07-29T07:40:42;2.30;;;2.10;;
13487;SDS011;6816;48.506;9.050;2023-07-29T07:43:55;3.20;;;2.30;;
13487;SDS011;6816;48.506;9.050;2023-07-29T07:46:55;2.65;;;2.13;;
13487;SDS011;6816;48.506;9.050;2023-07-29T07:49:56;2.47;;;2.30;;
13487;SDS011;6816;48.506;9.050;2023-07-29T07:52:57;3.20;;;2.70;;
13487;SDS011;6816;48.506;9.050;2023-07-29T07:55:58;2.65;;;2.22;;
13487;SDS011;6816;48.506;9.050;2023-07-29T07:58:58;2.60;;;2.35;;
13487;SDS011;6816;48.506;9.050;2023-07-29T08:01:59;2.47;;;2.25;;
13487;SDS011;6816;48.506;9.050;2023-07-29T08:04:59;3.38;;;2.10;;
13487;SDS011;6816;48.506;9.050;2023-07-29T08:08:00;4.00;;;2.47;;
13487;SDS011;6816;48.506;9.050;2023-07-29T08:11:00;2.30;;;2.08;;
13487;SDS011;6816;48.506;9.050;2023-07-29T08:14:01;3.05;;;2.38;;
13487;SDS011;6816;48.506;9.050;2023-07-29T08:17:02;2.20;;;2.10;;
13487;SDS011;6816;48.506;9.050;2023-07-29T08:20:03;2.67;;;2.47;;
13487;SDS011;6816;48.506;9.050;2023-07-29T08:23:04;2.60;;;2.40;;
13487;SDS011;6816;48.506;9.050;2023-07-29T08:26:05;2.65;;;2.30;;
13487;SDS011;6816;48.506;9.050;2023-07-29T08:29:06;2.92;;;2.40;;
13487;SDS011;6816;48.506;9.050;2023-07-29T08:32:07;2.85;;;2.20;;
13487;SDS011;6816;48.506;9.050;2023-07-29T08:35:07;3.60;;;2.35;;
13487;SDS011;6816;48.506;9.050;2023-07-29T08:38:08;2.67;;;2.47;;
13487;SDS011;6816;48.506;9.050;2023-07-29T08:44:22;2.05;;;1.90;;
13487;SDS011;6816;48.506;9.050;2023-07-29T08:47:26;2.35;;;2.15;;
13487;SDS011;6816;48.506;9.050;2023-07-29T08:50:28;2.50;;;1.90;;
13487;SDS011;6816;48.506;9.050;2023-07-29T08:53:33;1.90;;;1.80;;
13487;SDS011;6816;48.506;9.050;2023-07-29T08:56:35;1.80;;;1.70;;
13487;SDS011;6816;48.506;9.050;2023-07-29T08:59:36;2.45;;;2.25;;
13487;SDS011;6816;48.506;9.050;2023-07-29T09:02:37;2.25;;;2.00;;
13487;SDS011;6816;48.506;9.050;2023-07-29T09:05:38;1.52;;;1.42;;
13487;SDS011;6816;48.506;9.050;2023-07-29T09:08:39;1.75;;;1.63;;
13487;SDS011;6816;48.506;9.050;2023-07-29T09:11:39;1.73;;;1.63;;
13487;SDS011;6816;48.506;9.050;2023-07-29T09:14:40;2.20;;;2.00;;
13487;SDS011;6816;48.506;9.050;2023-07-29T09:17:41;1.95;;;1.85;;
13487;SDS011;6816;48.506;9.050;2023-07-29T09:20:41;2.20;;;2.00;;
13487;SDS011;6816;48.506;9.050;2023-07-29T09:23:43;2.45;;;2.08;;
13487;SDS011;6816;48.506;9.050;2023-07-29T09:26:51;2.08;;;1.92;;
13487;SDS011;6816;48.506;9.050;2023-07-29T09:29:55;2.00;;;1.90;;
13487;SDS011;6816;48.506;9.050;2023-07-29T09:32:56;2.47;;;1.98;;
13487;SDS011;6816;48.506;9.050;2023-07-29T09:35:57;2.50;;;2.30;;
13487;SDS011;6816;48.506;9.050;2023-07-29T09:38:58;2.47;;;2.28;;
13487;SDS011;6816;48.506;9.050;2023-07-29T09:41:59;2.90;;;2.70;;
13487;SDS011;6816;48.506;9.050;2023-07-29T09:45:00;2.42;;;2.22;;
13487;SDS011;6816;48.506;9.050;2023-07-29T09:48:01;2.60;;;2.40;;
13487;SDS011;6816;48.506;9.050;2023-07-29T09:51:12;2.88;;;2.60;;
13487;SDS011;6816;48.506;9.050;2023-07-29T09:54:13;2.58;;;2.35;;
13487;SDS011;6816;48.506;9.050;2023-07-29T09:57:15;2.40;;;2.20;;
13487;SDS011;6816;48.506;9.050;2023-07-29T10:00:18;2.22;;;2.10;;
13487;SDS011;6816;48.506;9.050;2023-07-29T10:03:20;2.15;;;1.98;;
13487;SDS011;6816;48.506;9.050;2023-07-29T10:06:21;2.20;;;2.00;;
13487;SDS011;6816;48.506;9.050;2023-07-29T10:09:23;2.65;;;2.00;;
13487;SDS011;6816;48.506;9.050;2023-07-29T10:12:24;2.50;;;2.30;;
13487;SDS011;6816;48.506;9.050;2023-07-29T10:15:25;2.10;;;2.00;;
13487;SDS011;6816;48.506;9.050;2023-07-29T10:18:26;2.58;;;2.38;;
13487;SDS011;6816;48.506;9.050;2023-07-29T10:21:27;2.30;;;2.10;;
13487;SDS011;6816;48.506;9.050;2023-07-29T10:24:30;2.30;;;2.20;;
13487;SDS011;6816;48.506;9.050;2023-07-29T10:27:35;2.60;;;2.33;;
13487;SDS011;6816;48.506;9.050;2023-07-29T10:30:47;2.28;;;2.08;;
13487;SDS011;6816;48.506;9.050;2023-07-29T10:33:48;1.88;;;1.73;;
13487;SDS011;6816;48.506;9.050;2023-07-29T10:36:49;1.95;;;1.85;;
13487;SDS011;6816;48.506;9.050;2023-07-29T10:39:53;2.22;;;2.03;;
13487;SDS011;6816;48.506;9.050;2023-07-29T10:43:01;2.33;;;2.13;;
13487;SDS011;6816;48.506;9.050;2023-07-29T10:46:15;1.77;;;1.67;;
13487;SDS011;6816;48.506;9.050;2023-07-29T10:49:22;2.30;;;2.10;;
13487;SDS011;6816;48.506;9.050;2023-07-29T10:52:31;2.28;;;2.10;;
13487;SDS011;6816;48.506;9.050;2023-07-29T10:55:35;2.45;;;2.25;;
13487;SDS011;6816;48.506;9.050;2023-07-29T10:58:39;2.00;;;1.90;;
13487;SDS011;6816;48.506;9.050;2023-07-29T11:01:57;1.75;;;1.65;;
13487;SDS011;6816;48.506;9.050;2023-07-29T11:04:58;2.47;;;2.28;;
13487;SDS011;6816;48.506;9.050;2023-07-29T11:08:00;2.22;;;2.00;;
13487;SDS011;6816;48.506;9.050;2023-07-29T11:11:19;2.63;;;2.00;;
13487;SDS011;6816;48.506;9.050;2023-07-29T11:14:20;2.63;;;2.42;;
13487;SDS011;6816;48.506;9.050;2023-07-29T11:17:21;2.05;;;1.95;;
13487;SDS011;6816;48.506;9.050;2023-07-29T11:20:26;2.60;;;2.28;;
13487;SDS011;6816;48.506;9.050;2023-07-29T11:23:28;1.73;;;1.63;;
13487;SDS011;6816;48.506;9.050;2023-07-29T11:26:36;2.42;;;1.88;;
13487;SDS011;6816;48.506;9.050;2023-07-29T11:29:37;1.92;;;1.83;;
13487;SDS011;6816;48.506;9.050;2023-07-29T11:32:38;2.28;;;1.77;;
13487;SDS011;6816;48.506;9.050;2023-07-29T11:35:40;3.45;;;1.90;;
13487;SDS011;6816;48.506;9.050;2023-07-29T11:38:41;2.08;;;1.88;;
13487;SDS011;6816;48.506;9.050;2023-07-29T11:41:42;2.95;;;2.50;;
13487;SDS011;6816;48.506;9.050;2023-07-29T11:44:42;1.85;;;1.75;;
13487;SDS011;6816;48.506;9.050;2023-07-29T11:47:43;3.90;;;1.60;;
13487;SDS011;6816;48.506;9.050;2023-07-29T11:50:44;1.80;;;1.70;;
13487;SDS011;6816;48.506;9.050;2023-07-29T11:53:45;1.70;;;1.60;;
13487;SDS011;6816;48.506;9.050;2023-07-29T11:56:46;1.67;;;1.58;;
13487;SDS011;6816;48.506;9.050;2023-07-29T11:59:47;2.45;;;1.75;;
13487;SDS011;6816;48.506;9.050;2023-07-29T12:02:48;1.67;;;1.58;;
13487;SDS011;6816;48.506;9.050;2023-07-29T12:05:49;1.88;;;1.65;;
13487;SDS011;6816;48.506;9.050;2023-07-29T12:08:50;1.95;;;1.80;;
13487;SDS011;6816;48.506;9.050;2023-07-29T12:11:51;5.47;;;2.58;;
13487;SDS011;6816;48.506;9.050;2023-07-29T12:14:53;1.92;;;1.83;;
13487;SDS011;6816;48.506;9.050;2023-07-29T12:17:55;1.70;;;1.60;;
13487;SDS011;6816;48.506;9.050;2023-07-29T12:20:57;2.28;;;1.77;;
13487;SDS011;6816;48.506;9.050;2023-07-29T12:23:57;1.60;;;1.50;;
13487;SDS011;6816;48.506;9.050;2023-07-29T12:26:58;1.80;;;1.70;;
13487;SDS011;6816;48.506;9.050;2023-07-29T12:30:00;1.73;;;1.63;;
13487;SDS011;6816;48.506;9.050;2023-07-29T12:33:03;1.98;;;1.73;;
13487;SDS011;6816;48.506;9.050;2023-07-29T12:36:06;1.85;;;1.75;;
13487;SDS011;6816;48.506;9.050;2023-07-29T12:39:15;1.70;;;1.60;;
13487;SDS011;6816;48.506;9.050;2023-07-29T12:42:28;1.75;;;1.65;;
13487;SDS011;6816;48.506;9.050;2023-07-29T12:45:35;1.92;;;1.83;;
13487;SDS011;6816;48.506;9.050;2023-07-29T12:48:36;1.90;;;1.80;;
13487;SDS011;6816;48.506;9.050;2023-07-29T12:51:36;2.10;;;1.70;;
13487;SDS011;6816;48.506;9.050;2023-07-29T12:54:37;1.80;;;1.70;;
13487;SDS011;6816;48.506;9.050;2023-07-29T12:57:38;1.95;;;1.85;;
13487;SDS011;6816;48.506;9.050;2023-07-29T13:00:39;1.73;;;1.63;;
13487;SDS011;6816;48.506;9.050;2023-07-29T13:03:40;1.90;;;1.80;;
13487;SDS011;6816;48.506;9.050;2023-07-29T13:06:40;2.00;;;1.90;;
13487;SDS011;6816;48.506;9.050;2023-07-29T13:09:41;2.30;;;1.88;;
13487;SDS011;6816;48.506;9.050;2023-07-29T13:12:41;2.72;;;1.85;;
13487;SDS011;6816;48.506;9.050;2023-07-29T13:15:42;1.80;;;1.67;;
13487;SDS011;6816;48.506;9.050;2023-07-29T13:18:43;1.98;;;1.88;;
13487;SDS011;6816;48.506;9.050;2023-07-29T13:21:46;1.88;;;1.77;;
13487;SDS011;6816;48.506;9.050;2023-07-29T13:24:47;2.88;;;2.10;;
13487;SDS011;6816;48.506;9.050;2023-07-29T13:27:48;2.00;;;1.90;;
13487;SDS011;6816;48.506;9.050;2023-07-29T13:30:49;2.42;;;1.75;;
13487;SDS011;6816;48.506;9.050;2023-07-29T13:33:49;2.20;;;2.00;;
13487;SDS011;6816;48.506;9.050;2023-07-29T13:36:50;2.75;;;2.00;;
13487;SDS011;6816;48.506;9.050;2023-07-29T13:39:50;3.08;;;1.85;;
13487;SDS011;6816;48.506;9.050;2023-07-29T13:42:51;1.83;;;1.73;;
13487;SDS011;6816;48.506;9.050;2023-07-29T13:45:52;2.63;;;1.92;;
13487;SDS011;6816;48.506;9.050;2023-07-29T13:48:52;1.90;;;1.80;;
13487;SDS011;6816;48.506;9.050;2023-07-29T13:51:53;1.60;;;1.50;;
13487;SDS011;6816;48.506;9.050;2023-07-29T13:54:53;2.17;;;1.90;;
13487;SDS011;6816;48.506;9.050;2023-07-29T13:57:54;1.92;;;1.83;;
13487;SDS011;6816;48.506;9.050;2023-07-29T14:00:55;1.85;;;1.75;;
13487;SDS011;6816;48.506;9.050;2023-07-29T14:03:55;2.13;;;1.73;;
13487;SDS011;6816;48.506;9.050;2023-07-29T14:06:56;1.85;;;1.75;;
13487;SDS011;6816;48.506;9.050;2023-07-29T14:09:56;1.73;;;1.63;;
13487;SDS011;6816;48.506;9.050;2023-07-29T14:12:57;1.98;;;1.83;;
13487;SDS011;6816;48.506;9.050;2023-07-29T14:16:00;2.05;;;1.90;;
13487;SDS011;6816;48.506;9.050;2023-07-29T14:19:02;1.90;;;1.65;;
13487;SDS011;6816;48.506;9.050;2023-07-29T14:22:03;1.80;;;1.70;;
13487;SDS011;6816;48.506;9.050;2023-07-29T14:25:04;1.92;;;1.83;;
13487;SDS011;6816;48.506;9.050;2023-07-29T14:28:05;1.77;;;1.55;;
13487;SDS011;6816;48.506;9.050;2023-07-29T14:31:06;1.92;;;1.83;;
13487;SDS011;6816;48.506;9.050;2023-07-29T14:34:06;1.70;;;1.60;;
13487;SDS011;6816;48.506;9.050;2023-07-29T14:37:07;1.90;;;1.80;;
13487;SDS011;6816;48.506;9.050;2023-07-29T14:40:07;1.92;;;1.73;;
13487;SDS011;6816;48.506;9.050;2023-07-29T14:43:08;1.88;;;1.77;;
13487;SDS011;6816;48.506;9.050;2023-07-29T14:46:09;2.25;;;1.83;;
13487;SDS011;6816;48.506;9.050;2023-07-29T14:49:09;1.95;;;1.85;;
13487;SDS011;6816;48.506;9.050;2023-07-29T14:52:10;1.77;;;1.67;;
13487;SDS011;6816;48.506;9.050;2023-07-29T14:55:11;2.13;;;1.70;;
13487;SDS011;6816;48.506;9.050;2023-07-29T14:58:12;2.67;;;1.85;;
13487;SDS011;6816;48.506;9.050;2023-07-29T15:01:12;1.73;;;1.63;;
13487;SDS011;6816;48.506;9.050;2023-07-29T15:04:13;2.00;;;1.90;;
13487;SDS011;6816;48.506;9.050;2023-07-29T15:07:13;2.33;;;1.98;;
13487;SDS011;6816;48.506;9.050;2023-07-29T15:10:14;1.52;;;1.42;;
13487;SDS011;6816;48.506;9.050;2023-07-29T15:13:18;3.55;;;2.03;;
13487;SDS011;6816;48.506;9.050;2023-07-29T15:16:18;1.80;;;1.70;;
13487;SDS011;6816;48.506;9.050;2023-07-29T15:19:19;1.52;;;1.42;;
13487;SDS011;6816;48.506;9.050;2023-07-29T15:22:19;1.90;;;1.70;;
13487;SDS011;6816;48.506;9.050;2023-07-29T15:25:20;1.98;;;1.88;;
13487;SDS011;6816;48.506;9.050;2023-07-29T15:28:21;1.60;;;1.50;;
13487;SDS011;6816;48.506;9.050;2023-07-29T15:31:22;7.43;;;2.58;;
13487;SDS011;6816;48.506;9.050;2023-07-29T15:34:22;1.70;;;1.60;;
13487;SDS011;6816;48.506;9.050;2023-07-29T15:37:25;2.53;;;2.30;;
13487;SDS011;6816;48.506;9.050;2023-07-29T15:40:26;2.10;;;1.90;;
13487;SDS011;6816;48.506;9.050;2023-07-29T15:43:27;1.95;;;1.85;;
13487;SDS011;6816;48.506;9.050;2023-07-29T15:46:27;1.67;;;1.58;;
13487;SDS011;6816;48.506;9.050;2023-07-29T15:49:28;1.60;;;1.50;;
13487;SDS011;6816;48.506;9.050;2023-07-29T15:52:29;1.70;;;1.60;;
13487;SDS011;6816;48.506;9.050;2023-07-29T15:55:29;1.90;;;1.80;;
13487;SDS011;6816;48.506;9.050;2023-07-29T15:58:30;1.88;;;1.70;;
13487;SDS011;6816;48.506;9.050;2023-07-29T16:01:30;1.85;;;1.75;;
13487;SDS011;6816;48.506;9.050;2023-07-29T16:04:31;1.60;;;1.48;;
13487;SDS011;6816;48.506;9.050;2023-07-29T16:07:32;1.70;;;1.60;;
13487;SDS011;6816;48.506;9.050;2023-07-29T16:10:32;2.13;;;1.65;;
13487;SDS011;6816;48.506;9.050;2023-07-29T16:13:33;1.60;;;1.50;;
13487;SDS011;6816;48.506;9.050;2023-07-29T16:16:36;1.58;;;1.48;;
13487;SDS011;6816;48.506;9.050;2023-07-29T16:19:54;1.90;;;1.80;;
13487;SDS011;6816;48.506;9.050;2023-07-29T16:22:56;2.00;;;1.90;;
13487;SDS011;6816;48.506;9.050;2023-07-29T16:25:57;1.85;;;1.75;;
13487;SDS011;6816;48.506;9.050;2023-07-29T16:28:58;2.58;;;1.55;;
13487;SDS011;6816;48.506;9.050;2023-07-29T16:31:59;1.80;;;1.70;;
13487;SDS011;6816;48.506;9.050;2023-07-29T16:34:59;1.65;;;1.55;;
13487;SDS011;6816;48.506;9.050;2023-07-29T16:38:00;1.48;;;1.38;;
13487;SDS011;6816;48.506;9.050;2023-07-29T16:41:01;2.45;;;1.70;;
13487;SDS011;6816;48.506;9.050;2023-07-29T16:44:01;1.83;;;1.50;;
13487;SDS011;6816;48.506;9.050;2023-07-29T16:47:02;2.08;;;1.75;;
13487;SDS011;6816;48.506;9.050;2023-07-29T16:50:03;2.35;;;1.80;;
13487;SDS011;6816;48.506;9.050;2023-07-29T16:53:04;4.28;;;1.80;;
13487;SDS011;6816;48.506;9.050;2023-07-29T16:56:05;3.15;;;1.90;;
13487;SDS011;6816;48.506;9.050;2023-07-29T16:59:06;2.17;;;1.92;;
13487;SDS011;6816;48.506;9.050;2023-07-29T17:05:22;1.90;;;1.63;;
13487;SDS011;6816;48.506;9.050;2023-07-29T17:08:23;5.05;;;2.22;;
13487;SDS011;6816;48.506;9.050;2023-07-29T17:11:24;4.10;;;2.55;;
13487;SDS011;6816;48.506;9.050;2023-07-29T17:14:25;2.78;;;2.20;;
13487;SDS011;6816;48.506;9.050;2023-07-29T17:17:28;2.58;;;2.30;;
13487;SDS011;6816;48.506;9.050;2023-07-29T17:20:37;2.97;;;2.53;;
13487;SDS011;6816;48.506;9.050;2023-07-29T17:23:50;3.03;;;2.42;;
13487;SDS011;6816;48.506;9.050;2023-07-29T17:27:01;3.85;;;2.55;;
13487;SDS011;6816;48.506;9.050;2023-07-29T17:30:23;3.17;;;2.50;;
13487;SDS011;6816;48.506;9.050;2023-07-29T17:34:41;4.43;;;2.63;;
13487;SDS011;6816;48.506;9.050;2023-07-29T17:50:25;2.83;;;2.25;;
13487;SDS011;6816;48.506;9.050;2023-07-29T17:53:25;2.78;;;2.10;;
13487;SDS011;6816;48.506;9.050;2023-07-29T18:04:18;2.80;;;2.60;;
13487;SDS011;6816;48.506;9.050;2023-07-29T18:07:18;2.88;;;2.67;;
13487;SDS011;6816;48.506;9.050;2023-07-29T18:10:19;3.00;;;2.78;;
13487;SDS011;6816;48.506;9.050;2023-07-29T18:13:20;2.90;;;2.70;;
13487;SDS011;6816;48.506;9.050;2023-07-29T18:16:21;2.78;;;2.58;;
13487;SDS011;6816;48.506;9.050;2023-07-29T18:19:22;2.60;;;2.40;;
13487;SDS011;6816;48.506;9.050;2023-07-29T18:22:24;2.67;;;2.47;;
13487;SDS011;6816;48.506;9.050;2023-07-29T18:25:25;3.20;;;2.90;;
13487;SDS011;6816;48.506;9.050;2023-07-29T18:28:26;3.38;;;3.08;;
13487;SDS011;6816;48.506;9.050;2023-07-29T18:31:26;3.25;;;2.75;;
13487;SDS011;6816;48.506;9.050;2023-07-29T18:34:27;3.53;;;3.22;;
13487;SDS011;6816;48.506;9.050;2023-07-29T18:37:28;3.83;;;3.53;;
13487;SDS011;6816;48.506;9.050;2023-07-29T18:40:41;3.97;;;3.58;;
13487;SDS011;6816;48.506;9.050;2023-07-29T18:44:39;3.78;;;3.47;;
13487;SDS011;6816;48.506;9.050;2023-07-29T18:47:40;3.47;;;3.17;;
13487;SDS011;6816;48.506;9.050;2023-07-29T18:50:43;3.47;;;3.17;;
13487;SDS011;6816;48.506;9.050;2023-07-29T18:53:43;3.40;;;3.10;;
13487;SDS011;6816;48.506;9.050;2023-07-29T18:56:44;4.13;;;3.75;;
13487;SDS011;6816;48.506;9.050;2023-07-29T18:59:45;3.72;;;3.40;;
13487;SDS011;6816;48.506;9.050;2023-07-29T19:02:46;3.45;;;3.15;;
13487;SDS011;6816;48.506;9.050;2023-07-29T19:05:48;3.70;;;3.40;;